sensor_id;sensor_type;location;lat;lon;timestamp;P1;durP1;ratioP1;P2;durP2;ratioP2
10659;SDS011;5378;53.206;13.316;2023-06-14T00:01:56;5.10;;;2.73;;
10659;SDS011;5378;53.206;13.316;2023-06-14T00:04:43;8.23;;;2.83;;
10659;SDS011;5378;53.206;13.316;2023-06-14T00:07:34;5.57;;;2.90;;
10659;SDS011;5378;53.206;13.316;2023-06-14T00:10:22;3.50;;;3.20;;
10659;SDS011;5378;53.206;13.316;2023-06-14T00:13:10;3.40;;;2.23;;
10659;SDS011;5378;53.206;13.316;2023-06-14T00:15:57;6.70;;;2.70;;
10659;SDS011;5378;53.206;13.316;2023-06-14T00:18:46;4.53;;;2.70;;
10659;SDS011;5378;53.206;13.316;2023-06-14T00:21:33;5.23;;;3.20;;
10659;SDS011;5378;53.206;13.316;2023-06-14T00:24:20;4.77;;;2.60;;
10659;SDS011;5378;53.206;13.316;2023-06-14T00:27:07;16.43;;;3.60;;
10659;SDS011;5378;53.206;13.316;2023-06-14T00:29:54;4.13;;;2.70;;
10659;SDS011;5378;53.206;13.316;2023-06-14T00:32:44;3.80;;;2.80;;
10659;SDS011;5378;53.206;13.316;2023-06-14T00:35:33;4.93;;;3.17;;
10659;SDS011;5378;53.206;13.316;2023-06-14T00:38:22;4.70;;;2.77;;
10659;SDS011;5378;53.206;13.316;2023-06-14T00:41:09;8.13;;;2.90;;
10659;SDS011;5378;53.206;13.316;2023-06-14T00:43:56;5.80;;;2.70;;
10659;SDS011;5378;53.206;13.316;2023-06-14T00:46:43;2.30;;;2.03;;
10659;SDS011;5378;53.206;13.316;2023-06-14T00:49:31;3.40;;;2.83;;
10659;SDS011;5378;53.206;13.316;2023-06-14T00:52:19;6.37;;;2.53;;
10659;SDS011;5378;53.206;13.316;2023-06-14T00:55:08;5.07;;;2.70;;
10659;SDS011;5378;53.206;13.316;2023-06-14T00:57:55;4.70;;;3.03;;
10659;SDS011;5378;53.206;13.316;2023-06-14T01:00:43;6.53;;;3.20;;
10659;SDS011;5378;53.206;13.316;2023-06-14T01:03:49;3.47;;;2.80;;
10659;SDS011;5378;53.206;13.316;2023-06-14T01:06:57;4.13;;;3.03;;
10659;SDS011;5378;53.206;13.316;2023-06-14T01:10:02;6.27;;;3.50;;
10659;SDS011;5378;53.206;13.316;2023-06-14T01:12:58;4.47;;;2.90;;
10659;SDS011;5378;53.206;13.316;2023-06-14T01:15:51;3.17;;;2.40;;
10659;SDS011;5378;53.206;13.316;2023-06-14T01:18:39;5.80;;;3.80;;
10659;SDS011;5378;53.206;13.316;2023-06-14T01:21:33;4.13;;;2.43;;
10659;SDS011;5378;53.206;13.316;2023-06-14T01:24:28;3.33;;;2.47;;
10659;SDS011;5378;53.206;13.316;2023-06-14T01:27:19;4.60;;;3.10;;
10659;SDS011;5378;53.206;13.316;2023-06-14T01:30:07;11.30;;;2.93;;
10659;SDS011;5378;53.206;13.316;2023-06-14T01:32:55;3.37;;;2.70;;
10659;SDS011;5378;53.206;13.316;2023-06-14T01:35:44;4.37;;;2.90;;
10659;SDS011;5378;53.206;13.316;2023-06-14T01:38:33;5.37;;;3.67;;
10659;SDS011;5378;53.206;13.316;2023-06-14T01:41:21;11.57;;;3.80;;
10659;SDS011;5378;53.206;13.316;2023-06-14T01:44:11;5.23;;;3.83;;
10659;SDS011;5378;53.206;13.316;2023-06-14T01:47:01;7.73;;;2.83;;
10659;SDS011;5378;53.206;13.316;2023-06-14T01:49:48;4.13;;;2.63;;
10659;SDS011;5378;53.206;13.316;2023-06-14T01:52:36;4.77;;;3.40;;
10659;SDS011;5378;53.206;13.316;2023-06-14T01:55:23;6.87;;;3.20;;
10659;SDS011;5378;53.206;13.316;2023-06-14T01:58:14;4.47;;;2.80;;
10659;SDS011;5378;53.206;13.316;2023-06-14T02:01:03;3.20;;;2.80;;
10659;SDS011;5378;53.206;13.316;2023-06-14T02:03:50;3.33;;;3.00;;
10659;SDS011;5378;53.206;13.316;2023-06-14T02:06:39;4.67;;;3.13;;
10659;SDS011;5378;53.206;13.316;2023-06-14T02:09:26;4.37;;;3.30;;
10659;SDS011;5378;53.206;13.316;2023-06-14T02:12:13;5.80;;;3.33;;
10659;SDS011;5378;53.206;13.316;2023-06-14T02:15:02;5.67;;;3.70;;
10659;SDS011;5378;53.206;13.316;2023-06-14T02:17:51;6.00;;;3.83;;
10659;SDS011;5378;53.206;13.316;2023-06-14T02:20:39;6.80;;;3.57;;
10659;SDS011;5378;53.206;13.316;2023-06-14T02:23:26;7.10;;;4.20;;
10659;SDS011;5378;53.206;13.316;2023-06-14T02:26:13;5.30;;;4.00;;
10659;SDS011;5378;53.206;13.316;2023-06-14T02:29:00;4.83;;;3.30;;
10659;SDS011;5378;53.206;13.316;2023-06-14T02:31:48;5.20;;;3.63;;
10659;SDS011;5378;53.206;13.316;2023-06-14T02:34:39;3.87;;;3.03;;
10659;SDS011;5378;53.206;13.316;2023-06-14T02:37:27;5.33;;;3.73;;
10659;SDS011;5378;53.206;13.316;2023-06-14T02:40:13;7.43;;;2.90;;
10659;SDS011;5378;53.206;13.316;2023-06-14T02:43:00;8.60;;;4.30;;
10659;SDS011;5378;53.206;13.316;2023-06-14T02:45:47;19.10;;;4.00;;
10659;SDS011;5378;53.206;13.316;2023-06-14T02:48:36;7.57;;;3.77;;
10659;SDS011;5378;53.206;13.316;2023-06-14T02:51:23;6.70;;;3.80;;
10659;SDS011;5378;53.206;13.316;2023-06-14T02:54:10;8.37;;;4.33;;
10659;SDS011;5378;53.206;13.316;2023-06-14T02:56:57;8.83;;;4.37;;
10659;SDS011;5378;53.206;13.316;2023-06-14T02:59:44;9.73;;;4.13;;
10659;SDS011;5378;53.206;13.316;2023-06-14T03:02:31;13.70;;;4.10;;
10659;SDS011;5378;53.206;13.316;2023-06-14T03:05:20;5.17;;;3.60;;
10659;SDS011;5378;53.206;13.316;2023-06-14T03:08:07;11.40;;;3.90;;
10659;SDS011;5378;53.206;13.316;2023-06-14T03:10:54;7.60;;;5.10;;
10659;SDS011;5378;53.206;13.316;2023-06-14T03:13:42;7.30;;;3.67;;
10659;SDS011;5378;53.206;13.316;2023-06-14T03:16:31;9.63;;;4.27;;
10659;SDS011;5378;53.206;13.316;2023-06-14T03:19:19;5.40;;;3.53;;
10659;SDS011;5378;53.206;13.316;2023-06-14T03:22:07;6.10;;;3.50;;
10659;SDS011;5378;53.206;13.316;2023-06-14T03:24:58;7.30;;;3.57;;
10659;SDS011;5378;53.206;13.316;2023-06-14T03:27:49;9.50;;;3.70;;
10659;SDS011;5378;53.206;13.316;2023-06-14T03:30:37;6.20;;;3.10;;
10659;SDS011;5378;53.206;13.316;2023-06-14T03:33:25;6.77;;;3.80;;
10659;SDS011;5378;53.206;13.316;2023-06-14T03:36:13;13.43;;;4.30;;
10659;SDS011;5378;53.206;13.316;2023-06-14T03:39:01;4.40;;;3.50;;
10659;SDS011;5378;53.206;13.316;2023-06-14T03:41:49;5.17;;;3.03;;
10659;SDS011;5378;53.206;13.316;2023-06-14T03:44:36;6.43;;;3.40;;
10659;SDS011;5378;53.206;13.316;2023-06-14T03:47:23;7.10;;;4.47;;
10659;SDS011;5378;53.206;13.316;2023-06-14T03:50:11;9.47;;;3.00;;
10659;SDS011;5378;53.206;13.316;2023-06-14T03:52:58;8.60;;;3.07;;
10659;SDS011;5378;53.206;13.316;2023-06-14T03:55:48;7.87;;;2.87;;
10659;SDS011;5378;53.206;13.316;2023-06-14T03:58:43;6.43;;;3.23;;
10659;SDS011;5378;53.206;13.316;2023-06-14T04:01:30;4.30;;;2.60;;
10659;SDS011;5378;53.206;13.316;2023-06-14T04:04:19;6.23;;;3.13;;
10659;SDS011;5378;53.206;13.316;2023-06-14T04:07:07;3.37;;;2.77;;
10659;SDS011;5378;53.206;13.316;2023-06-14T04:09:55;6.77;;;3.00;;
10659;SDS011;5378;53.206;13.316;2023-06-14T04:12:43;3.93;;;2.47;;
10659;SDS011;5378;53.206;13.316;2023-06-14T04:15:30;4.43;;;3.27;;
10659;SDS011;5378;53.206;13.316;2023-06-14T04:18:17;5.30;;;3.33;;
10659;SDS011;5378;53.206;13.316;2023-06-14T04:21:06;6.83;;;3.33;;
10659;SDS011;5378;53.206;13.316;2023-06-14T04:23:53;4.30;;;2.80;;
10659;SDS011;5378;53.206;13.316;2023-06-14T04:26:44;3.83;;;3.17;;
10659;SDS011;5378;53.206;13.316;2023-06-14T04:29:36;3.43;;;2.13;;
10659;SDS011;5378;53.206;13.316;2023-06-14T04:32:28;4.00;;;2.80;;
10659;SDS011;5378;53.206;13.316;2023-06-14T04:35:18;3.47;;;2.80;;
10659;SDS011;5378;53.206;13.316;2023-06-14T04:38:06;4.43;;;3.20;;
10659;SDS011;5378;53.206;13.316;2023-06-14T04:40:55;6.17;;;3.53;;
10659;SDS011;5378;53.206;13.316;2023-06-14T04:43:43;5.10;;;3.37;;
10659;SDS011;5378;53.206;13.316;2023-06-14T04:46:35;5.87;;;3.03;;
10659;SDS011;5378;53.206;13.316;2023-06-14T04:49:31;4.20;;;2.80;;
10659;SDS011;5378;53.206;13.316;2023-06-14T04:52:19;4.90;;;3.03;;
10659;SDS011;5378;53.206;13.316;2023-06-14T04:55:07;5.50;;;2.50;;
10659;SDS011;5378;53.206;13.316;2023-06-14T04:57:55;8.73;;;4.67;;
10659;SDS011;5378;53.206;13.316;2023-06-14T05:00:44;5.60;;;4.30;;
10659;SDS011;5378;53.206;13.316;2023-06-14T05:03:33;4.80;;;3.30;;
10659;SDS011;5378;53.206;13.316;2023-06-14T05:06:21;7.80;;;3.33;;
10659;SDS011;5378;53.206;13.316;2023-06-14T05:09:08;6.10;;;3.57;;
10659;SDS011;5378;53.206;13.316;2023-06-14T05:11:56;4.63;;;3.60;;
10659;SDS011;5378;53.206;13.316;2023-06-14T05:14:45;6.57;;;3.27;;
10659;SDS011;5378;53.206;13.316;2023-06-14T05:17:35;10.13;;;3.50;;
10659;SDS011;5378;53.206;13.316;2023-06-14T05:20:24;4.40;;;3.40;;
10659;SDS011;5378;53.206;13.316;2023-06-14T05:23:12;10.53;;;4.50;;
10659;SDS011;5378;53.206;13.316;2023-06-14T05:26:00;6.23;;;4.00;;
10659;SDS011;5378;53.206;13.316;2023-06-14T05:28:48;3.63;;;3.17;;
10659;SDS011;5378;53.206;13.316;2023-06-14T05:31:36;5.57;;;4.10;;
10659;SDS011;5378;53.206;13.316;2023-06-14T05:34:24;8.83;;;3.33;;
10659;SDS011;5378;53.206;13.316;2023-06-14T05:37:12;3.30;;;2.63;;
10659;SDS011;5378;53.206;13.316;2023-06-14T05:39:59;9.83;;;3.13;;
10659;SDS011;5378;53.206;13.316;2023-06-14T05:42:48;4.67;;;3.23;;
10659;SDS011;5378;53.206;13.316;2023-06-14T05:45:36;5.87;;;3.30;;
10659;SDS011;5378;53.206;13.316;2023-06-14T05:48:22;5.03;;;2.80;;
10659;SDS011;5378;53.206;13.316;2023-06-14T05:51:09;5.80;;;2.70;;
10659;SDS011;5378;53.206;13.316;2023-06-14T05:53:58;7.33;;;3.50;;
10659;SDS011;5378;53.206;13.316;2023-06-14T05:56:45;7.20;;;2.93;;
10659;SDS011;5378;53.206;13.316;2023-06-14T05:59:32;5.63;;;3.03;;
10659;SDS011;5378;53.206;13.316;2023-06-14T06:02:20;3.83;;;2.87;;
10659;SDS011;5378;53.206;13.316;2023-06-14T06:05:08;4.60;;;2.80;;
10659;SDS011;5378;53.206;13.316;2023-06-14T06:07:55;3.83;;;2.30;;
10659;SDS011;5378;53.206;13.316;2023-06-14T06:10:43;2.93;;;2.63;;
10659;SDS011;5378;53.206;13.316;2023-06-14T06:13:30;8.27;;;2.70;;
10659;SDS011;5378;53.206;13.316;2023-06-14T06:16:17;4.27;;;2.77;;
10659;SDS011;5378;53.206;13.316;2023-06-14T06:19:04;4.67;;;3.13;;
10659;SDS011;5378;53.206;13.316;2023-06-14T06:21:52;3.40;;;2.30;;
10659;SDS011;5378;53.206;13.316;2023-06-14T06:24:39;3.30;;;2.83;;
10659;SDS011;5378;53.206;13.316;2023-06-14T06:27:28;14.70;;;2.70;;
10659;SDS011;5378;53.206;13.316;2023-06-14T06:30:15;3.00;;;2.60;;
10659;SDS011;5378;53.206;13.316;2023-06-14T06:33:03;5.73;;;3.50;;
10659;SDS011;5378;53.206;13.316;2023-06-14T06:35:51;11.30;;;2.97;;
10659;SDS011;5378;53.206;13.316;2023-06-14T06:38:38;4.40;;;2.73;;
10659;SDS011;5378;53.206;13.316;2023-06-14T06:41:26;4.87;;;3.17;;
10659;SDS011;5378;53.206;13.316;2023-06-14T06:44:15;5.93;;;2.80;;
10659;SDS011;5378;53.206;13.316;2023-06-14T06:47:07;3.63;;;2.87;;
10659;SDS011;5378;53.206;13.316;2023-06-14T06:49:55;3.97;;;2.93;;
10659;SDS011;5378;53.206;13.316;2023-06-14T06:52:42;3.83;;;2.97;;
10659;SDS011;5378;53.206;13.316;2023-06-14T06:55:31;3.27;;;2.70;;
10659;SDS011;5378;53.206;13.316;2023-06-14T06:58:17;9.13;;;2.33;;
10659;SDS011;5378;53.206;13.316;2023-06-14T07:01:06;3.90;;;2.87;;
10659;SDS011;5378;53.206;13.316;2023-06-14T07:03:54;3.47;;;2.70;;
10659;SDS011;5378;53.206;13.316;2023-06-14T07:06:42;3.97;;;2.90;;
10659;SDS011;5378;53.206;13.316;2023-06-14T07:09:29;10.43;;;2.60;;
10659;SDS011;5378;53.206;13.316;2023-06-14T07:12:16;2.90;;;2.60;;
10659;SDS011;5378;53.206;13.316;2023-06-14T07:15:04;10.80;;;2.90;;
10659;SDS011;5378;53.206;13.316;2023-06-14T07:17:53;3.10;;;2.33;;
10659;SDS011;5378;53.206;13.316;2023-06-14T07:20:45;3.03;;;2.50;;
10659;SDS011;5378;53.206;13.316;2023-06-14T07:23:32;4.13;;;2.80;;
10659;SDS011;5378;53.206;13.316;2023-06-14T07:26:20;2.70;;;2.17;;
10659;SDS011;5378;53.206;13.316;2023-06-14T07:29:07;3.10;;;2.20;;
10659;SDS011;5378;53.206;13.316;2023-06-14T07:31:54;4.40;;;2.47;;
10659;SDS011;5378;53.206;13.316;2023-06-14T07:34:42;4.87;;;2.80;;
10659;SDS011;5378;53.206;13.316;2023-06-14T07:37:29;9.40;;;2.93;;
10659;SDS011;5378;53.206;13.316;2023-06-14T07:40:16;3.57;;;2.27;;
10659;SDS011;5378;53.206;13.316;2023-06-14T07:43:03;2.90;;;1.97;;
10659;SDS011;5378;53.206;13.316;2023-06-14T07:45:50;6.43;;;2.30;;
10659;SDS011;5378;53.206;13.316;2023-06-14T07:48:47;3.57;;;2.57;;
10659;SDS011;5378;53.206;13.316;2023-06-14T07:51:35;5.33;;;2.20;;
10659;SDS011;5378;53.206;13.316;2023-06-14T07:54:23;7.30;;;2.63;;
10659;SDS011;5378;53.206;13.316;2023-06-14T07:57:11;4.30;;;2.53;;
10659;SDS011;5378;53.206;13.316;2023-06-14T07:59:59;7.10;;;2.30;;
10659;SDS011;5378;53.206;13.316;2023-06-14T08:02:56;5.07;;;2.13;;
10659;SDS011;5378;53.206;13.316;2023-06-14T08:05:46;4.33;;;2.30;;
10659;SDS011;5378;53.206;13.316;2023-06-14T08:08:34;2.97;;;2.23;;
10659;SDS011;5378;53.206;13.316;2023-06-14T08:11:21;3.60;;;2.00;;
10659;SDS011;5378;53.206;13.316;2023-06-14T08:14:09;5.10;;;2.33;;
10659;SDS011;5378;53.206;13.316;2023-06-14T08:16:56;4.87;;;2.73;;
10659;SDS011;5378;53.206;13.316;2023-06-14T08:19:43;2.60;;;2.10;;
10659;SDS011;5378;53.206;13.316;2023-06-14T08:22:30;2.87;;;1.87;;
10659;SDS011;5378;53.206;13.316;2023-06-14T08:25:20;2.60;;;1.70;;
10659;SDS011;5378;53.206;13.316;2023-06-14T08:28:07;9.73;;;3.33;;
10659;SDS011;5378;53.206;13.316;2023-06-14T08:30:54;4.80;;;2.13;;
10659;SDS011;5378;53.206;13.316;2023-06-14T08:33:41;2.83;;;2.20;;
10659;SDS011;5378;53.206;13.316;2023-06-14T08:36:29;4.97;;;2.40;;
10659;SDS011;5378;53.206;13.316;2023-06-14T08:39:16;4.67;;;2.70;;
10659;SDS011;5378;53.206;13.316;2023-06-14T08:42:05;10.60;;;2.83;;
10659;SDS011;5378;53.206;13.316;2023-06-14T08:44:56;2.90;;;2.30;;
10659;SDS011;5378;53.206;13.316;2023-06-14T08:47:43;2.83;;;2.33;;
10659;SDS011;5378;53.206;13.316;2023-06-14T08:50:31;4.17;;;2.50;;
10659;SDS011;5378;53.206;13.316;2023-06-14T08:53:19;2.50;;;2.30;;
10659;SDS011;5378;53.206;13.316;2023-06-14T08:56:07;2.30;;;2.10;;
10659;SDS011;5378;53.206;13.316;2023-06-14T08:59:00;5.40;;;3.00;;
10659;SDS011;5378;53.206;13.316;2023-06-14T09:01:48;4.83;;;2.30;;
10659;SDS011;5378;53.206;13.316;2023-06-14T09:04:44;2.70;;;2.20;;
10659;SDS011;5378;53.206;13.316;2023-06-14T09:07:31;3.70;;;2.20;;
10659;SDS011;5378;53.206;13.316;2023-06-14T09:10:18;2.60;;;2.20;;
10659;SDS011;5378;53.206;13.316;2023-06-14T09:13:08;2.57;;;2.37;;
10659;SDS011;5378;53.206;13.316;2023-06-14T09:15:56;4.50;;;2.23;;
10659;SDS011;5378;53.206;13.316;2023-06-14T09:18:45;5.00;;;1.97;;
10659;SDS011;5378;53.206;13.316;2023-06-14T09:21:33;4.10;;;2.37;;
10659;SDS011;5378;53.206;13.316;2023-06-14T09:24:21;2.97;;;1.70;;
10659;SDS011;5378;53.206;13.316;2023-06-14T09:27:14;10.00;;;2.50;;
10659;SDS011;5378;53.206;13.316;2023-06-14T09:30:02;4.43;;;2.00;;
10659;SDS011;5378;53.206;13.316;2023-06-14T09:32:51;3.50;;;2.53;;
10659;SDS011;5378;53.206;13.316;2023-06-14T09:35:38;2.50;;;1.70;;
10659;SDS011;5378;53.206;13.316;2023-06-14T09:38:25;3.30;;;1.73;;
10659;SDS011;5378;53.206;13.316;2023-06-14T09:41:13;4.17;;;2.60;;
10659;SDS011;5378;53.206;13.316;2023-06-14T09:44:00;7.23;;;2.50;;
10659;SDS011;5378;53.206;13.316;2023-06-14T09:46:48;3.50;;;2.10;;
10659;SDS011;5378;53.206;13.316;2023-06-14T09:49:37;5.80;;;2.03;;
10659;SDS011;5378;53.206;13.316;2023-06-14T09:52:25;4.20;;;2.00;;
10659;SDS011;5378;53.206;13.316;2023-06-14T09:55:14;5.43;;;2.37;;
10659;SDS011;5378;53.206;13.316;2023-06-14T09:58:04;6.63;;;2.00;;
10659;SDS011;5378;53.206;13.316;2023-06-14T10:00:52;3.40;;;2.30;;
10659;SDS011;5378;53.206;13.316;2023-06-14T10:03:41;3.03;;;2.03;;
10659;SDS011;5378;53.206;13.316;2023-06-14T10:06:36;6.73;;;2.13;;
10659;SDS011;5378;53.206;13.316;2023-06-14T10:09:25;5.63;;;2.13;;
10659;SDS011;5378;53.206;13.316;2023-06-14T10:12:14;5.00;;;2.13;;
10659;SDS011;5378;53.206;13.316;2023-06-14T10:15:07;6.43;;;2.47;;
10659;SDS011;5378;53.206;13.316;2023-06-14T10:17:57;2.17;;;1.53;;
10659;SDS011;5378;53.206;13.316;2023-06-14T10:20:50;5.10;;;1.87;;
10659;SDS011;5378;53.206;13.316;2023-06-14T10:23:44;3.33;;;1.87;;
10659;SDS011;5378;53.206;13.316;2023-06-14T10:26:33;2.83;;;1.97;;
10659;SDS011;5378;53.206;13.316;2023-06-14T10:29:20;3.73;;;2.40;;
10659;SDS011;5378;53.206;13.316;2023-06-14T10:32:07;5.63;;;2.20;;
10659;SDS011;5378;53.206;13.316;2023-06-14T10:34:54;4.80;;;2.20;;
10659;SDS011;5378;53.206;13.316;2023-06-14T10:37:45;4.20;;;2.20;;
10659;SDS011;5378;53.206;13.316;2023-06-14T10:40:34;5.57;;;1.70;;
10659;SDS011;5378;53.206;13.316;2023-06-14T10:43:23;7.63;;;2.83;;
10659;SDS011;5378;53.206;13.316;2023-06-14T10:46:12;3.97;;;1.93;;
10659;SDS011;5378;53.206;13.316;2023-06-14T10:49:00;4.70;;;2.40;;
10659;SDS011;5378;53.206;13.316;2023-06-14T10:51:49;5.30;;;2.40;;
10659;SDS011;5378;53.206;13.316;2023-06-14T10:54:37;3.63;;;2.03;;
10659;SDS011;5378;53.206;13.316;2023-06-14T10:57:26;4.40;;;2.43;;
10659;SDS011;5378;53.206;13.316;2023-06-14T11:00:13;5.37;;;2.00;;
10659;SDS011;5378;53.206;13.316;2023-06-14T11:03:17;5.27;;;1.50;;
10659;SDS011;5378;53.206;13.316;2023-06-14T11:06:23;3.43;;;1.63;;
10659;SDS011;5378;53.206;13.316;2023-06-14T11:09:27;3.33;;;1.50;;
10659;SDS011;5378;53.206;13.316;2023-06-14T11:12:30;3.73;;;2.13;;
10659;SDS011;5378;53.206;13.316;2023-06-14T11:15:27;3.83;;;1.90;;
10659;SDS011;5378;53.206;13.316;2023-06-14T11:18:15;6.40;;;2.50;;
10659;SDS011;5378;53.206;13.316;2023-06-14T11:21:03;5.73;;;1.77;;
10659;SDS011;5378;53.206;13.316;2023-06-14T11:23:50;2.10;;;1.70;;
10659;SDS011;5378;53.206;13.316;2023-06-14T11:26:39;3.00;;;2.30;;
10659;SDS011;5378;53.206;13.316;2023-06-14T11:29:28;4.60;;;2.27;;
10659;SDS011;5378;53.206;13.316;2023-06-14T11:32:15;3.67;;;1.93;;
10659;SDS011;5378;53.206;13.316;2023-06-14T11:35:02;2.30;;;1.80;;
10659;SDS011;5378;53.206;13.316;2023-06-14T11:37:52;2.60;;;2.00;;
10659;SDS011;5378;53.206;13.316;2023-06-14T11:40:41;2.30;;;2.07;;
10659;SDS011;5378;53.206;13.316;2023-06-14T11:43:28;2.77;;;1.60;;
10659;SDS011;5378;53.206;13.316;2023-06-14T11:46:18;4.73;;;2.70;;
10659;SDS011;5378;53.206;13.316;2023-06-14T11:49:09;3.80;;;2.07;;
10659;SDS011;5378;53.206;13.316;2023-06-14T11:51:56;3.20;;;2.13;;
10659;SDS011;5378;53.206;13.316;2023-06-14T11:54:43;2.60;;;2.23;;
10659;SDS011;5378;53.206;13.316;2023-06-14T11:57:30;2.23;;;1.93;;
10659;SDS011;5378;53.206;13.316;2023-06-14T12:00:22;3.23;;;2.10;;
10659;SDS011;5378;53.206;13.316;2023-06-14T12:03:12;2.80;;;2.00;;
10659;SDS011;5378;53.206;13.316;2023-06-14T12:06:06;3.47;;;2.10;;
10659;SDS011;5378;53.206;13.316;2023-06-14T12:08:55;4.10;;;2.43;;
10659;SDS011;5378;53.206;13.316;2023-06-14T12:11:42;4.63;;;2.30;;
10659;SDS011;5378;53.206;13.316;2023-06-14T12:14:30;7.03;;;2.07;;
10659;SDS011;5378;53.206;13.316;2023-06-14T12:17:17;3.63;;;2.23;;
10659;SDS011;5378;53.206;13.316;2023-06-14T12:20:07;3.23;;;2.07;;
10659;SDS011;5378;53.206;13.316;2023-06-14T12:22:58;2.40;;;1.90;;
10659;SDS011;5378;53.206;13.316;2023-06-14T12:25:47;2.20;;;1.87;;
10659;SDS011;5378;53.206;13.316;2023-06-14T12:28:35;2.97;;;1.80;;
10659;SDS011;5378;53.206;13.316;2023-06-14T12:31:22;5.10;;;2.80;;
10659;SDS011;5378;53.206;13.316;2023-06-14T12:34:10;3.73;;;2.30;;
10659;SDS011;5378;53.206;13.316;2023-06-14T12:36:58;11.30;;;3.30;;
10659;SDS011;5378;53.206;13.316;2023-06-14T12:39:45;4.13;;;1.40;;
10659;SDS011;5378;53.206;13.316;2023-06-14T12:42:32;3.37;;;1.70;;
10659;SDS011;5378;53.206;13.316;2023-06-14T12:45:20;2.93;;;2.10;;
10659;SDS011;5378;53.206;13.316;2023-06-14T12:48:08;3.27;;;2.20;;
10659;SDS011;5378;53.206;13.316;2023-06-14T12:50:56;3.10;;;2.07;;
10659;SDS011;5378;53.206;13.316;2023-06-14T12:53:44;2.30;;;1.90;;
10659;SDS011;5378;53.206;13.316;2023-06-14T12:56:30;3.83;;;2.03;;
10659;SDS011;5378;53.206;13.316;2023-06-14T12:59:18;4.20;;;1.80;;
10659;SDS011;5378;53.206;13.316;2023-06-14T13:02:12;3.20;;;2.37;;
10659;SDS011;5378;53.206;13.316;2023-06-14T13:05:00;2.80;;;2.40;;
10659;SDS011;5378;53.206;13.316;2023-06-14T13:07:49;3.80;;;2.20;;
10659;SDS011;5378;53.206;13.316;2023-06-14T13:10:38;4.40;;;2.10;;
10659;SDS011;5378;53.206;13.316;2023-06-14T13:13:25;2.07;;;1.83;;
10659;SDS011;5378;53.206;13.316;2023-06-14T13:16:12;2.27;;;1.93;;
10659;SDS011;5378;53.206;13.316;2023-06-14T13:19:00;2.43;;;1.73;;
10659;SDS011;5378;53.206;13.316;2023-06-14T13:21:47;3.63;;;2.00;;
10659;SDS011;5378;53.206;13.316;2023-06-14T13:24:35;2.97;;;2.20;;
10659;SDS011;5378;53.206;13.316;2023-06-14T13:27:24;2.50;;;1.67;;
10659;SDS011;5378;53.206;13.316;2023-06-14T13:30:12;4.17;;;2.00;;
10659;SDS011;5378;53.206;13.316;2023-06-14T13:32:59;3.77;;;2.53;;
10659;SDS011;5378;53.206;13.316;2023-06-14T13:35:48;2.60;;;1.87;;
10659;SDS011;5378;53.206;13.316;2023-06-14T13:38:35;2.40;;;1.70;;
10659;SDS011;5378;53.206;13.316;2023-06-14T13:41:22;3.90;;;2.03;;
10659;SDS011;5378;53.206;13.316;2023-06-14T13:44:11;5.57;;;2.00;;
10659;SDS011;5378;53.206;13.316;2023-06-14T13:47:01;14.83;;;2.83;;
10659;SDS011;5378;53.206;13.316;2023-06-14T13:49:47;3.50;;;1.97;;
10659;SDS011;5378;53.206;13.316;2023-06-14T13:52:35;2.83;;;2.10;;
10659;SDS011;5378;53.206;13.316;2023-06-14T13:55:22;3.40;;;2.03;;
10659;SDS011;5378;53.206;13.316;2023-06-14T13:58:09;2.77;;;1.70;;
10659;SDS011;5378;53.206;13.316;2023-06-14T14:00:58;2.50;;;1.73;;
10659;SDS011;5378;53.206;13.316;2023-06-14T14:03:47;2.27;;;1.87;;
10659;SDS011;5378;53.206;13.316;2023-06-14T14:06:34;3.20;;;1.80;;
10659;SDS011;5378;53.206;13.316;2023-06-14T14:09:21;6.47;;;2.80;;
10659;SDS011;5378;53.206;13.316;2023-06-14T14:12:09;4.00;;;2.00;;
10659;SDS011;5378;53.206;13.316;2023-06-14T14:14:56;5.00;;;2.07;;
10659;SDS011;5378;53.206;13.316;2023-06-14T14:17:44;4.60;;;2.17;;
10659;SDS011;5378;53.206;13.316;2023-06-14T14:20:32;3.43;;;2.50;;
10659;SDS011;5378;53.206;13.316;2023-06-14T14:23:19;4.53;;;2.53;;
10659;SDS011;5378;53.206;13.316;2023-06-14T14:26:06;3.93;;;1.77;;
10659;SDS011;5378;53.206;13.316;2023-06-14T14:28:53;2.80;;;1.63;;
10659;SDS011;5378;53.206;13.316;2023-06-14T14:31:41;2.30;;;1.70;;
10659;SDS011;5378;53.206;13.316;2023-06-14T14:34:29;7.10;;;2.07;;
10659;SDS011;5378;53.206;13.316;2023-06-14T14:37:16;3.57;;;2.03;;
10659;SDS011;5378;53.206;13.316;2023-06-14T14:40:04;3.97;;;2.87;;
10659;SDS011;5378;53.206;13.316;2023-06-14T14:42:51;4.03;;;2.60;;
10659;SDS011;5378;53.206;13.316;2023-06-14T14:45:39;2.93;;;1.90;;
10659;SDS011;5378;53.206;13.316;2023-06-14T14:48:26;6.40;;;2.60;;
10659;SDS011;5378;53.206;13.316;2023-06-14T14:51:14;11.40;;;2.87;;
10659;SDS011;5378;53.206;13.316;2023-06-14T14:54:02;4.57;;;2.10;;
10659;SDS011;5378;53.206;13.316;2023-06-14T14:56:49;3.17;;;2.00;;
10659;SDS011;5378;53.206;13.316;2023-06-14T14:59:36;11.50;;;2.20;;
10659;SDS011;5378;53.206;13.316;2023-06-14T15:02:23;3.80;;;2.50;;
10659;SDS011;5378;53.206;13.316;2023-06-14T15:05:10;5.50;;;2.07;;
10659;SDS011;5378;53.206;13.316;2023-06-14T15:07:58;5.23;;;2.13;;
10659;SDS011;5378;53.206;13.316;2023-06-14T15:10:45;3.53;;;1.93;;
10659;SDS011;5378;53.206;13.316;2023-06-14T15:13:33;4.47;;;2.10;;
10659;SDS011;5378;53.206;13.316;2023-06-14T15:16:21;5.17;;;2.57;;
10659;SDS011;5378;53.206;13.316;2023-06-14T15:19:08;5.60;;;2.67;;
10659;SDS011;5378;53.206;13.316;2023-06-14T15:21:55;6.40;;;2.00;;
10659;SDS011;5378;53.206;13.316;2023-06-14T15:24:45;3.47;;;2.60;;
10659;SDS011;5378;53.206;13.316;2023-06-14T15:27:34;6.20;;;2.33;;
10659;SDS011;5378;53.206;13.316;2023-06-14T15:30:21;3.43;;;2.10;;
10659;SDS011;5378;53.206;13.316;2023-06-14T15:33:08;4.57;;;2.13;;
10659;SDS011;5378;53.206;13.316;2023-06-14T15:35:55;4.37;;;2.00;;
10659;SDS011;5378;53.206;13.316;2023-06-14T15:38:43;3.60;;;1.90;;
10659;SDS011;5378;53.206;13.316;2023-06-14T15:41:31;8.13;;;1.80;;
10659;SDS011;5378;53.206;13.316;2023-06-14T15:44:18;7.90;;;2.50;;
10659;SDS011;5378;53.206;13.316;2023-06-14T15:47:06;4.03;;;2.30;;
10659;SDS011;5378;53.206;13.316;2023-06-14T15:49:53;2.93;;;2.07;;
10659;SDS011;5378;53.206;13.316;2023-06-14T15:52:40;1.77;;;1.63;;
10659;SDS011;5378;53.206;13.316;2023-06-14T15:55:27;7.60;;;2.30;;
10659;SDS011;5378;53.206;13.316;2023-06-14T15:58:15;2.37;;;2.07;;
10659;SDS011;5378;53.206;13.316;2023-06-14T16:01:02;3.57;;;2.00;;
10659;SDS011;5378;53.206;13.316;2023-06-14T16:03:50;5.00;;;2.63;;
10659;SDS011;5378;53.206;13.316;2023-06-14T16:06:37;3.70;;;2.00;;
10659;SDS011;5378;53.206;13.316;2023-06-14T16:09:24;4.27;;;2.10;;
10659;SDS011;5378;53.206;13.316;2023-06-14T16:12:11;4.70;;;2.37;;
10659;SDS011;5378;53.206;13.316;2023-06-14T16:15:00;2.97;;;2.33;;
10659;SDS011;5378;53.206;13.316;2023-06-14T16:17:47;4.80;;;2.13;;
10659;SDS011;5378;53.206;13.316;2023-06-14T16:20:35;4.00;;;1.77;;
10659;SDS011;5378;53.206;13.316;2023-06-14T16:23:22;10.03;;;2.40;;
10659;SDS011;5378;53.206;13.316;2023-06-14T16:26:10;3.30;;;1.83;;
10659;SDS011;5378;53.206;13.316;2023-06-14T16:28:58;6.30;;;1.90;;
10659;SDS011;5378;53.206;13.316;2023-06-14T16:31:47;3.17;;;2.10;;
10659;SDS011;5378;53.206;13.316;2023-06-14T16:34:34;4.43;;;2.30;;
10659;SDS011;5378;53.206;13.316;2023-06-14T16:37:21;3.27;;;2.03;;
10659;SDS011;5378;53.206;13.316;2023-06-14T16:40:09;3.33;;;2.30;;
10659;SDS011;5378;53.206;13.316;2023-06-14T16:42:56;4.70;;;2.17;;
10659;SDS011;5378;53.206;13.316;2023-06-14T16:45:43;4.67;;;2.20;;
10659;SDS011;5378;53.206;13.316;2023-06-14T16:48:32;5.37;;;2.20;;
10659;SDS011;5378;53.206;13.316;2023-06-14T16:51:18;4.60;;;2.53;;
10659;SDS011;5378;53.206;13.316;2023-06-14T16:54:06;3.80;;;2.27;;
10659;SDS011;5378;53.206;13.316;2023-06-14T16:56:53;7.10;;;1.70;;